createdAt,value
2018-02-16T00:00:53.214Z,97.10
2018-02-16T00:02:55.832Z,97.10
2018-02-16T00:04:58.459Z,97.00
2018-02-16T00:07:01.102Z,96.90
2018-02-16T00:09:03.752Z,96.90
2018-02-16T00:11:06.395Z,96.80
2018-02-16T00:13:09.024Z,97.40
2018-02-16T00:15:11.637Z,97.80
2018-02-16T00:17:14.361Z,97.90
2018-02-16T00:19:16.958Z,97.70
2018-02-16T00:21:20.326Z,97.40
2018-02-16T00:23:22.969Z,97.40
2018-02-16T00:25:25.631Z,97.40
2018-02-16T00:27:29.046Z,97.50
2018-02-16T00:29:31.665Z,97.50
2018-02-16T00:31:34.261Z,97.80
2018-02-16T00:33:36.887Z,97.80
2018-02-16T00:35:39.493Z,97.70
2018-02-16T00:37:42.106Z,97.70
2018-02-16T00:39:45.511Z,97.80
2018-02-16T00:41:48.149Z,97.80
2018-02-16T00:43:50.798Z,97.80
2018-02-16T00:45:53.416Z,97.70
2018-02-16T00:47:56.801Z,97.60
2018-02-16T00:49:59.429Z,97.60
2018-02-16T00:52:02.856Z,97.90
2018-02-16T00:54:05.525Z,97.90
2018-02-16T00:56:08.157Z,97.80
2018-02-16T00:58:10.772Z,97.70
2018-02-16T01:00:13.374Z,97.70
2018-02-16T01:02:15.988Z,97.40
2018-02-16T01:04:18.660Z,97.40
2018-02-16T01:06:21.251Z,97.50
2018-02-16T01:08:23.884Z,97.60
2018-02-16T01:10:26.489Z,97.70
2018-02-16T01:12:29.093Z,97.70
2018-02-16T01:14:31.721Z,97.60
2018-02-16T01:16:35.101Z,97.70
2018-02-16T01:18:38.635Z,97.70
2018-02-16T01:20:41.262Z,97.80
2018-02-16T01:22:43.857Z,97.70
2018-02-16T01:24:47.263Z,97.50
2018-02-16T01:26:50.618Z,97.30
2018-02-16T01:28:53.238Z,97.30
2018-02-16T01:30:55.857Z,97.60
2018-02-16T01:32:58.471Z,97.30
2018-02-16T01:35:01.878Z,97.30
2018-02-16T01:37:05.263Z,97.30
2018-02-16T01:39:08.666Z,97.50
2018-02-16T01:41:11.316Z,97.50
2018-02-16T01:43:13.949Z,97.90
2018-02-16T01:45:16.644Z,98.00
2018-02-16T01:47:19.261Z,97.90
2018-02-16T01:49:22.652Z,97.70
2018-02-16T01:51:25.272Z,97.70
2018-02-16T01:53:27.873Z,97.60
2018-02-16T01:55:30.485Z,97.40
2018-02-16T01:57:33.901Z,97.60
2018-02-16T01:59:36.526Z,97.50
2018-02-16T02:01:39.192Z,97.50
2018-02-16T02:03:41.818Z,97.40
2018-02-16T02:05:45.258Z,97.40
2018-02-16T02:07:47.877Z,97.40
2018-02-16T02:09:51.286Z,97.70
2018-02-16T02:11:53.917Z,97.70
2018-02-16T02:13:56.509Z,97.40
2018-02-16T02:15:59.125Z,97.40
2018-02-16T02:18:01.745Z,97.30
2018-02-16T02:20:05.156Z,97.30
2018-02-16T02:22:07.776Z,97.20
2018-02-16T02:24:10.364Z,97.60
2018-02-16T02:26:12.992Z,97.50
2018-02-16T02:28:15.609Z,97.60
2018-02-16T02:30:18.234Z,98.10
2018-02-16T02:32:20.875Z,98.20
2018-02-16T02:34:23.468Z,98.40
2018-02-16T02:36:26.084Z,98.20
2018-02-16T02:38:29.534Z,98.00
2018-02-16T02:40:32.225Z,98.00
2018-02-16T02:42:34.870Z,98.00
2018-02-16T02:44:38.253Z,98.00
2018-02-16T02:46:40.927Z,97.70
2018-02-16T02:48:43.550Z,97.80
2018-02-16T02:50:46.174Z,97.70
2018-02-16T02:52:48.820Z,97.80
2018-02-16T02:54:52.190Z,97.90
2018-02-16T02:56:54.821Z,97.90
2018-02-16T02:58:57.654Z,97.90
2018-02-16T03:01:00.265Z,98.00
2018-02-16T03:03:02.923Z,98.20
2018-02-16T03:05:06.349Z,98.30
2018-02-16T03:07:08.952Z,98.00
2018-02-16T03:09:11.596Z,98.20
2018-02-16T03:11:14.249Z,98.50
2018-02-16T03:13:17.734Z,98.30
2018-02-16T03:15:20.407Z,98.30
2018-02-16T03:17:23.040Z,98.00
2018-02-16T03:19:25.650Z,97.70
2018-02-16T03:21:28.291Z,97.50
2018-02-16T03:23:31.682Z,98.00
2018-02-16T03:25:34.374Z,98.00
2018-02-16T03:27:36.983Z,98.40
2018-02-16T03:29:40.373Z,98.10
2018-02-16T03:31:43.009Z,98.10
2018-02-16T03:33:45.606Z,97.80
2018-02-16T03:35:48.285Z,97.90
2018-02-16T03:37:50.929Z,97.80
2018-02-16T03:39:53.562Z,97.70
2018-02-16T03:41:56.969Z,98.00
2018-02-16T03:44:00.343Z,97.50
2018-02-16T03:46:02.977Z,97.50
2018-02-16T03:48:05.628Z,97.40
2018-02-16T03:50:08.258Z,97.40
2018-02-16T03:52:10.895Z,97.40
2018-02-16T03:54:13.497Z,97.40
2018-02-16T03:56:16.873Z,98.10
2018-02-16T03:58:19.497Z,98.10
2018-02-16T04:00:22.869Z,97.70
2018-02-16T04:02:25.493Z,97.70
2018-02-16T04:04:28.112Z,97.70
2018-02-16T04:06:30.769Z,97.50
2018-02-16T04:08:33.412Z,97.50
2018-02-16T04:10:37.606Z,97.80
2018-02-16T04:12:40.217Z,97.80
2018-02-16T04:14:42.857Z,97.90
2018-02-16T04:16:45.463Z,98.00
2018-02-16T04:18:48.065Z,97.90
2018-02-16T04:20:50.718Z,97.50
2018-02-16T04:22:53.331Z,97.50
2018-02-16T04:24:55.965Z,97.60
2018-02-16T04:26:58.605Z,97.40
2018-02-16T04:29:01.209Z,97.40
2018-02-16T04:31:04.627Z,97.30
2018-02-16T04:33:07.294Z,97.30
2018-02-16T04:35:09.893Z,97.20
2018-02-16T04:37:12.529Z,97.20
2018-02-16T04:39:15.909Z,97.50
2018-02-16T04:41:18.548Z,97.40
2018-02-16T04:43:21.937Z,97.80
2018-02-16T04:45:25.324Z,98.20
2018-02-16T04:47:27.939Z,97.90
2018-02-16T04:49:30.654Z,98.00
2018-02-16T04:51:33.270Z,98.50
2018-02-16T04:53:35.924Z,98.50
2018-02-16T04:55:38.524Z,98.60
2018-02-16T04:57:42.006Z,99.00
2018-02-16T04:59:44.633Z,99.00
2018-02-16T05:01:47.996Z,99.30
2018-02-16T05:03:50.624Z,99.30
2018-02-16T05:05:53.220Z,99.70
2018-02-16T05:07:55.841Z,99.60
2018-02-16T05:09:58.447Z,99.40
2018-02-16T05:12:01.085Z,99.50
2018-02-16T05:14:03.753Z,99.40
2018-02-16T05:16:06.391Z,99.30
2018-02-16T05:18:09.041Z,99.30
2018-02-16T05:20:12.450Z,99.40
2018-02-16T05:22:15.065Z,99.40
2018-02-16T05:24:17.741Z,99.40
2018-02-16T05:26:20.329Z,99.10
2018-02-16T05:28:23.001Z,99.20
2018-02-16T05:30:25.639Z,99.00
2018-02-16T05:32:28.282Z,98.90
2018-02-16T05:34:31.647Z,98.80
2018-02-16T05:36:34.285Z,98.70
2018-02-16T05:38:36.902Z,98.70
2018-02-16T05:40:39.769Z,98.90
2018-02-16T05:42:43.151Z,98.50
2018-02-16T05:44:45.751Z,98.50
2018-02-16T05:46:48.430Z,98.60
2018-02-16T05:48:51.048Z,98.70
2018-02-16T05:50:53.676Z,98.60
2018-02-16T05:52:56.289Z,98.60
2018-02-16T05:54:59.681Z,98.90
2018-02-16T05:57:03.064Z,98.70
2018-02-16T05:59:06.794Z,98.50
2018-02-16T06:01:09.413Z,98.50
2018-02-16T06:03:12.020Z,98.50
2018-02-16T06:05:15.448Z,98.50
2018-02-16T06:07:18.070Z,98.40
2018-02-16T06:09:20.666Z,98.00
2018-02-16T06:11:24.100Z,97.60
2018-02-16T06:13:26.734Z,97.60
2018-02-16T06:15:30.110Z,98.40
2018-02-16T06:17:32.755Z,98.40
2018-02-16T06:19:35.340Z,98.20
2018-02-16T06:21:38.055Z,98.10
2018-02-16T06:23:40.672Z,97.80
2018-02-16T06:25:43.276Z,97.50
2018-02-16T06:27:45.886Z,97.60
2018-02-16T06:29:49.266Z,97.80
2018-02-16T06:31:51.981Z,97.80
2018-02-16T06:33:54.589Z,97.90
2018-02-16T06:35:57.199Z,98.30
2018-02-16T06:37:59.841Z,98.00
2018-02-16T06:40:02.664Z,97.70
2018-02-16T06:42:06.009Z,97.90
2018-02-16T06:44:08.625Z,97.80
2018-02-16T06:46:11.216Z,98.10
2018-02-16T06:48:14.042Z,97.90
2018-02-16T06:50:16.658Z,97.60
2018-02-16T06:52:19.259Z,97.90
2018-02-16T06:54:22.767Z,98.70
2018-02-16T06:56:25.451Z,98.50
2018-02-16T06:58:28.036Z,98.40
2018-02-16T07:00:30.659Z,98.40
2018-02-16T07:02:33.249Z,98.10
2018-02-16T07:04:36.625Z,98.30
2018-02-16T07:06:39.201Z,98.30
2018-02-16T07:08:41.809Z,98.40
2018-02-16T07:10:44.421Z,98.30
2018-02-16T07:12:47.169Z,98.70
2018-02-16T07:14:49.786Z,98.50
2018-02-16T07:16:52.401Z,98.30
2018-02-16T07:18:55.765Z,98.20
2018-02-16T07:20:58.357Z,98.20
2018-02-16T07:23:00.984Z,98.50
2018-02-16T07:25:03.573Z,98.50
2018-02-16T07:27:06.173Z,98.50
2018-02-16T07:29:08.762Z,98.80
2018-02-16T07:31:12.114Z,98.30
2018-02-16T07:33:14.741Z,98.20
2018-02-16T07:35:17.413Z,98.30
2018-02-16T07:37:20.791Z,98.40
2018-02-16T07:39:23.397Z,98.20
2018-02-16T07:41:26.013Z,98.20
2018-02-16T07:43:28.681Z,98.50
2018-02-16T07:45:31.290Z,98.50
2018-02-16T07:47:33.909Z,98.50
2018-02-16T07:49:36.562Z,98.70
2018-02-16T07:51:40.191Z,98.40
2018-02-16T07:53:42.813Z,98.40
2018-02-16T07:55:45.487Z,98.90
2018-02-16T07:57:48.091Z,98.90
2018-02-16T07:59:51.473Z,98.90
2018-02-16T08:01:54.077Z,98.90
2018-02-16T08:03:56.705Z,98.80
2018-02-16T08:05:59.294Z,98.90
2018-02-16T08:08:01.908Z,99.00
2018-02-16T08:10:04.522Z,99.30
2018-02-16T08:12:07.136Z,99.30
2018-02-16T08:14:10.560Z,99.10
2018-02-16T08:16:13.191Z,99.10
2018-02-16T08:18:15.794Z,99.40
2018-02-16T08:20:18.397Z,99.10
2018-02-16T08:22:21.083Z,99.00
2018-02-16T08:24:23.689Z,99.10
2018-02-16T08:26:26.305Z,99.00
2018-02-16T08:28:28.897Z,99.00
2018-02-16T08:30:31.515Z,99.20
2018-02-16T08:32:34.110Z,99.00
2018-02-16T08:34:37.469Z,98.80
2018-02-16T08:36:41.602Z,99.10
2018-02-16T08:38:44.212Z,98.80
2018-02-16T08:40:46.831Z,99.20
2018-02-16T08:42:49.412Z,99.10
2018-02-16T08:44:52.004Z,98.80
2018-02-16T08:46:54.614Z,98.90
2018-02-16T08:48:57.205Z,99.20
2018-02-16T08:50:59.849Z,99.00
2018-02-16T08:53:03.215Z,99.10
2018-02-16T08:55:05.805Z,99.10
2018-02-16T08:57:09.190Z,99.10
2018-02-16T08:59:11.797Z,98.90
2018-02-16T09:01:14.409Z,98.90
2018-02-16T09:03:17.019Z,99.00
2018-02-16T09:05:19.672Z,99.00
2018-02-16T09:07:22.284Z,99.00
2018-02-16T09:09:25.644Z,99.40
2018-02-16T09:11:28.237Z,99.40
2018-02-16T09:13:30.852Z,99.20
2018-02-16T09:15:33.460Z,99.30
2018-02-16T09:17:36.076Z,99.60
2018-02-16T09:19:39.464Z,99.60
2018-02-16T09:21:42.950Z,99.30
2018-02-16T09:23:45.593Z,99.30
2018-02-16T09:25:48.172Z,99.20
2018-02-16T09:27:51.283Z,99.40
2018-02-16T09:29:53.891Z,99.60
2018-02-16T09:31:57.270Z,99.80
2018-02-16T09:34:00.660Z,99.90
2018-02-16T09:36:04.274Z,99.90
2018-02-16T09:38:07.670Z,99.90
2018-02-16T09:40:11.034Z,99.90
2018-02-16T09:42:13.692Z,99.90
2018-02-16T09:44:16.297Z,99.90
2018-02-16T09:46:18.901Z,99.90
2018-02-16T09:48:21.509Z,99.90
2018-02-16T09:50:24.122Z,99.90
2018-02-16T09:52:26.704Z,99.90
2018-02-16T09:54:30.145Z,99.90
2018-02-16T09:56:32.801Z,99.90
2018-02-16T09:58:35.452Z,99.90
2018-02-16T10:00:38.826Z,99.90
2018-02-16T10:02:41.439Z,99.90
2018-02-16T10:04:44.078Z,99.90
2018-02-16T10:06:46.680Z,99.70
2018-02-16T10:08:50.054Z,99.70
2018-02-16T10:10:52.671Z,99.60
2018-02-16T10:12:55.302Z,99.60
2018-02-16T10:14:58.010Z,99.40
2018-02-16T10:17:01.383Z,99.00
2018-02-16T10:19:04.117Z,99.00
2018-02-16T10:21:06.744Z,98.80
2018-02-16T10:23:10.121Z,99.00
2018-02-16T10:25:12.713Z,99.00
2018-02-16T10:27:16.118Z,98.40
2018-02-16T10:29:19.470Z,98.40
2018-02-16T10:31:22.087Z,98.40
2018-02-16T10:33:25.490Z,98.50
2018-02-16T10:35:28.085Z,98.50
2018-02-16T10:37:30.712Z,98.60
2018-02-16T10:39:33.323Z,98.30
2018-02-16T10:41:35.916Z,98.30
2018-02-16T10:43:38.551Z,98.40
2018-02-16T10:45:41.909Z,98.50
2018-02-16T10:47:44.553Z,98.50
2018-02-16T10:49:47.153Z,98.30
2018-02-16T10:51:49.752Z,97.40
2018-02-16T10:53:52.373Z,98.10
2018-02-16T10:55:54.964Z,98.50
2018-02-16T10:57:57.605Z,97.50
2018-02-16T11:00:01.010Z,97.80
2018-02-16T11:02:09.390Z,97.80
2018-02-16T11:04:17.781Z,97.00
2018-02-16T11:06:26.096Z,96.20
2018-02-16T11:08:34.509Z,96.20
2018-02-16T11:10:37.112Z,96.00
2018-02-16T11:12:40.496Z,95.70
2018-02-16T11:14:43.865Z,96.10
2018-02-16T11:16:46.483Z,96.10
2018-02-16T11:18:49.961Z,95.40
2018-02-16T11:20:53.361Z,95.00
2018-02-16T11:22:56.741Z,96.10
2018-02-16T11:24:59.330Z,96.10
2018-02-16T11:27:02.722Z,96.10
2018-02-16T11:29:06.083Z,96.70
2018-02-16T11:31:08.709Z,96.70
2018-02-16T11:33:11.310Z,95.40
2018-02-16T11:35:13.921Z,95.30
2018-02-16T11:37:16.587Z,95.40
2018-02-16T11:39:19.190Z,91.90
2018-02-16T11:41:22.572Z,93.90
2018-02-16T11:43:25.181Z,93.90
2018-02-16T11:45:27.803Z,94.60
2018-02-16T11:47:30.395Z,94.20
2018-02-16T11:49:32.999Z,93.00
2018-02-16T11:51:36.385Z,91.90
2018-02-16T11:53:39.770Z,91.90
2018-02-16T11:55:43.136Z,92.30
2018-02-16T11:57:45.740Z,92.30
2018-02-16T11:59:49.286Z,91.70
2018-02-16T12:01:51.889Z,91.60
2018-02-16T12:03:54.701Z,91.80
2018-02-16T12:05:58.105Z,91.80
2018-02-16T12:08:01.446Z,91.60
2018-02-16T12:10:04.047Z,91.60
2018-02-16T12:12:06.669Z,91.90
2018-02-16T12:14:09.267Z,91.30
2018-02-16T12:16:11.890Z,91.20
2018-02-16T12:18:15.300Z,91.50
2018-02-16T12:20:17.885Z,91.50
2018-02-16T12:22:20.518Z,92.20
2018-02-16T12:24:23.114Z,92.00
2018-02-16T12:26:26.478Z,91.10
2018-02-16T12:28:29.098Z,91.00
2018-02-16T12:30:31.706Z,91.40
2018-02-16T12:32:34.336Z,90.90
2018-02-16T12:34:37.708Z,91.40
2018-02-16T12:36:40.314Z,91.40
2018-02-16T12:38:42.935Z,91.90
2018-02-16T12:40:45.543Z,91.40
2018-02-16T12:42:49.105Z,91.30
2018-02-16T12:44:51.992Z,91.20
2018-02-16T12:46:55.354Z,91.00
2018-02-16T12:48:58.070Z,91.00
2018-02-16T12:51:00.925Z,89.90
2018-02-16T12:53:04.450Z,90.80
2018-02-16T12:55:07.045Z,90.80
2018-02-16T12:57:09.626Z,90.30
2018-02-16T12:59:12.289Z,89.10
2018-02-16T13:01:14.893Z,90.20
2018-02-16T13:03:17.510Z,90.20
2018-02-16T13:05:20.134Z,88.00
2018-02-16T13:07:22.769Z,87.30
2018-02-16T13:09:25.420Z,86.60
2018-02-16T13:11:28.038Z,88.00
2018-02-16T13:13:30.684Z,84.50
2018-02-16T13:15:33.301Z,82.90
2018-02-16T13:17:35.889Z,84.10
2018-02-16T13:19:39.285Z,85.10
2018-02-16T13:21:41.899Z,85.10
2018-02-16T13:23:44.529Z,85.30
2018-02-16T13:25:48.050Z,87.20
2018-02-16T13:27:50.635Z,87.10
2018-02-16T13:29:53.225Z,85.00
2018-02-16T13:31:55.848Z,84.80
2018-02-16T13:33:59.216Z,85.10
2018-02-16T13:36:01.856Z,85.70
2018-02-16T13:38:04.595Z,83.50
2018-02-16T13:40:07.282Z,83.20
2018-02-16T13:42:09.958Z,83.80
2018-02-16T13:44:13.346Z,86.00
2018-02-16T13:46:16.713Z,88.10
2018-02-16T13:48:19.353Z,88.10
2018-02-16T13:50:22.028Z,88.70
2018-02-16T13:52:24.652Z,86.30
2018-02-16T13:54:28.110Z,84.30
2018-02-16T13:56:30.725Z,84.30
2018-02-16T13:58:33.400Z,84.40
2018-02-16T14:00:36.035Z,83.50
2018-02-16T14:02:38.630Z,85.00
2018-02-16T14:04:41.248Z,84.90
2018-02-16T14:06:44.618Z,84.90
2018-02-16T14:08:47.233Z,84.80
2018-02-16T14:10:49.887Z,84.30
2018-02-16T14:12:52.454Z,85.40
2018-02-16T14:14:55.063Z,85.60
2018-02-16T14:16:57.676Z,85.00
2018-02-16T14:19:00.342Z,84.90
2018-02-16T14:21:02.989Z,85.70
2018-02-16T14:23:05.621Z,86.20
2018-02-16T14:25:08.235Z,87.10
2018-02-16T14:27:10.825Z,85.40
2018-02-16T14:31:41.733Z,83.80
2018-02-16T14:33:44.305Z,86.20
2018-02-16T14:35:47.009Z,84.80
2018-02-16T14:37:50.828Z,85.80
2018-02-16T14:39:53.441Z,85.70
2018-02-16T14:41:56.065Z,86.90
2018-02-16T14:43:59.428Z,87.90
2018-02-16T14:46:02.004Z,87.90
2018-02-16T14:48:04.650Z,88.00
2018-02-16T14:50:07.483Z,87.40
2018-02-16T14:52:10.821Z,84.90
2018-02-16T14:54:13.451Z,84.90
2018-02-16T14:56:16.816Z,87.40
2018-02-16T14:58:19.776Z,87.30
2018-02-16T15:00:22.811Z,88.40
2018-02-16T15:02:25.726Z,86.80
2018-02-16T15:04:28.364Z,85.20
2018-02-16T15:06:31.062Z,86.60
2018-02-16T15:08:33.641Z,82.80
2018-02-16T15:10:36.303Z,83.70
2018-02-16T15:12:39.653Z,84.80
2018-02-16T15:14:42.287Z,84.80
2018-02-16T15:16:44.891Z,86.20
2018-02-16T15:18:47.505Z,87.10
2018-02-16T15:20:50.897Z,87.40
2018-02-16T15:22:54.418Z,88.30
2018-02-16T15:24:57.063Z,88.30
2018-02-16T15:27:00.441Z,86.00
2018-02-16T15:29:03.061Z,85.90
2018-02-16T15:31:05.728Z,88.20
2018-02-16T15:33:08.305Z,88.30
2018-02-16T15:35:10.927Z,88.50
2018-02-16T15:37:13.534Z,88.50
2018-02-16T15:39:16.968Z,89.10
2018-02-16T15:41:19.562Z,89.10
2018-02-16T15:43:22.149Z,89.90
2018-02-16T15:45:24.856Z,89.90
2018-02-16T15:47:27.445Z,90.10
2018-02-16T15:49:30.057Z,90.00
2018-02-16T15:51:32.676Z,89.80
2018-02-16T15:53:35.273Z,90.00
2018-02-16T15:55:37.977Z,90.40
2018-02-16T15:57:40.665Z,90.10
2018-02-16T15:59:43.324Z,90.10
2018-02-16T16:01:46.050Z,90.40
2018-02-16T16:03:49.419Z,90.00
2018-02-16T16:05:52.018Z,90.00
2018-02-16T16:07:55.395Z,90.40
2018-02-16T16:09:58.014Z,90.40
2018-02-16T16:12:00.634Z,90.40
2018-02-16T16:14:03.340Z,89.80
2018-02-16T16:16:06.801Z,90.00
2018-02-16T16:18:09.433Z,89.90
2018-02-16T16:20:12.018Z,90.20
2018-02-16T16:22:14.657Z,90.40
2018-02-16T16:24:18.049Z,90.80
2018-02-16T16:26:21.401Z,90.90
2018-02-16T16:28:24.038Z,90.90
2018-02-16T16:30:26.643Z,91.20
2018-02-16T16:32:29.250Z,91.20
2018-02-16T16:34:31.854Z,91.40
2018-02-16T16:36:34.445Z,91.70
2018-02-16T16:38:37.062Z,91.40
2018-02-16T16:40:39.902Z,91.60
2018-02-16T16:42:42.513Z,91.00
2018-02-16T16:44:45.682Z,91.40
2018-02-16T16:46:48.294Z,91.80
2018-02-16T16:48:51.671Z,91.90
2018-02-16T16:50:54.281Z,91.90
2018-02-16T16:52:56.901Z,92.00
2018-02-16T16:54:59.494Z,92.30
2018-02-16T16:57:02.093Z,92.40
2018-02-16T16:59:04.694Z,92.40
2018-02-16T17:01:07.332Z,92.40
2018-02-16T17:03:10.727Z,92.60
2018-02-16T17:05:14.092Z,92.60
2018-02-16T17:07:16.734Z,92.60
2018-02-16T17:09:19.351Z,93.10
2018-02-16T17:11:22.003Z,92.80
2018-02-16T17:13:24.877Z,92.80
2018-02-16T17:15:27.616Z,93.40
2018-02-16T17:17:30.231Z,93.20
2018-02-16T17:19:32.850Z,93.00
2018-02-16T17:21:36.233Z,93.40
2018-02-16T17:23:38.817Z,93.40
2018-02-16T17:25:42.164Z,93.60
2018-02-16T17:27:44.772Z,93.60
2018-02-16T17:29:47.369Z,93.50
2018-02-16T17:31:50.747Z,93.70
2018-02-16T17:33:54.146Z,93.70
2018-02-16T17:35:57.540Z,94.00
2018-02-16T17:38:00.904Z,94.10
2018-02-16T17:40:03.516Z,94.00
2018-02-16T17:42:06.886Z,94.10
2018-02-16T17:44:09.522Z,94.00
2018-02-16T17:46:12.116Z,94.10
2018-02-16T17:48:14.743Z,94.10
2018-02-16T17:50:17.326Z,94.10
2018-02-16T17:52:20.076Z,94.00
2018-02-16T17:54:23.468Z,93.70
2018-02-16T17:56:26.862Z,94.00
2018-02-16T17:58:30.221Z,94.00
2018-02-16T18:00:32.854Z,94.00
2018-02-16T18:02:35.458Z,94.20
2018-02-16T18:04:38.084Z,94.20
2018-02-16T18:06:41.477Z,94.20
2018-02-16T18:08:44.852Z,93.80
2018-02-16T18:10:47.473Z,93.80
2018-02-16T18:12:50.078Z,94.10
2018-02-16T18:14:52.682Z,94.00
2018-02-16T18:16:56.076Z,94.10
2018-02-16T18:18:59.534Z,94.00
2018-02-16T18:21:02.142Z,94.00
2018-02-16T18:23:05.505Z,94.50
2018-02-16T18:25:08.106Z,94.50
2018-02-16T18:27:11.478Z,94.30
2018-02-16T18:29:14.089Z,94.30
2018-02-16T18:31:16.721Z,94.30
2018-02-16T18:33:19.336Z,94.50
2018-02-16T18:35:22.709Z,94.40
2018-02-16T18:37:25.326Z,94.40
2018-02-16T18:39:27.914Z,94.40
2018-02-16T18:41:30.542Z,94.30
2018-02-16T18:43:33.894Z,94.40
2018-02-16T18:45:36.493Z,94.30
2018-02-16T18:47:39.114Z,94.90
2018-02-16T18:49:41.696Z,94.60
2018-02-16T18:51:44.324Z,95.00
2018-02-16T18:53:47.699Z,94.50
2018-02-16T18:55:50.290Z,94.50
2018-02-16T18:57:53.670Z,94.50
2018-02-16T18:59:56.309Z,94.50
2018-02-16T19:01:58.921Z,94.30
2018-02-16T19:04:01.548Z,94.30
2018-02-16T19:06:04.145Z,94.40
2018-02-16T19:08:06.761Z,94.30
2018-02-16T19:10:10.151Z,94.60
2018-02-16T19:12:13.525Z,94.40
2018-02-16T19:14:16.199Z,94.40
2018-02-16T19:16:18.812Z,94.70
2018-02-16T19:18:22.173Z,94.90
2018-02-16T19:20:24.788Z,94.90
2018-02-16T19:22:27.385Z,95.00
2018-02-16T19:24:30.015Z,94.50
2018-02-16T19:26:33.373Z,94.70
2018-02-16T19:28:35.971Z,94.70
2018-02-16T19:30:38.603Z,94.40
2018-02-16T19:32:41.194Z,94.40
2018-02-16T19:34:43.848Z,94.40
2018-02-16T19:36:46.445Z,94.40
2018-02-16T19:38:49.045Z,94.20
2018-02-16T19:40:52.441Z,94.50
2018-02-16T19:42:55.814Z,94.40
2018-02-16T19:44:58.434Z,94.40
2018-02-16T19:47:01.045Z,94.40
2018-02-16T19:49:03.642Z,94.50
2018-02-16T19:51:06.225Z,94.30
2018-02-16T19:53:09.636Z,94.50
2018-02-16T19:55:13.025Z,94.30
2018-02-16T19:57:16.434Z,94.40
2018-02-16T19:59:19.032Z,94.40
2018-02-16T20:01:21.640Z,94.60
2018-02-16T20:03:24.272Z,94.80
2018-02-16T20:05:26.874Z,94.80
2018-02-16T20:07:30.253Z,95.00
2018-02-16T20:09:32.850Z,94.90
2018-02-16T20:11:35.436Z,94.70
2018-02-16T20:13:38.053Z,94.60
2018-02-16T20:15:40.661Z,95.00
2018-02-16T20:17:43.285Z,94.80
2018-02-16T20:19:46.691Z,94.90
2018-02-16T20:21:49.305Z,94.90
2018-02-16T20:23:51.947Z,94.90
2018-02-16T20:25:54.542Z,94.70
2018-02-16T20:27:57.144Z,94.70
2018-02-16T20:29:59.754Z,94.40
2018-02-16T20:32:02.361Z,94.50
2018-02-16T20:34:05.000Z,94.40
2018-02-16T20:36:07.590Z,94.40
2018-02-16T20:38:10.215Z,94.50
2018-02-16T20:40:12.841Z,94.50
2018-02-16T20:42:15.431Z,94.70
2018-02-16T20:44:18.016Z,94.70
2018-02-16T20:46:20.646Z,94.90
2018-02-16T20:48:24.019Z,94.90
2018-02-16T20:50:27.435Z,95.00
2018-02-16T20:52:30.070Z,94.90
2018-02-16T20:54:32.688Z,94.80
2018-02-16T20:56:35.324Z,95.00
2018-02-16T20:58:38.693Z,94.90
2018-02-16T21:00:41.318Z,94.90
2018-02-16T21:02:44.679Z,94.90
2018-02-16T21:04:47.324Z,94.80
2018-02-16T21:06:49.970Z,94.90
2018-02-16T21:08:52.546Z,94.90
2018-02-16T21:10:55.173Z,94.90
2018-02-16T21:12:57.789Z,94.80
2018-02-16T21:15:01.274Z,94.70
2018-02-16T21:17:04.713Z,94.80
2018-02-16T21:19:07.309Z,94.80
2018-02-16T21:21:09.917Z,94.80
2018-02-16T21:23:12.782Z,94.60
2018-02-16T21:25:15.470Z,94.40
2018-02-16T21:27:18.848Z,94.80
2018-02-16T21:29:21.447Z,94.80
2018-02-16T21:31:24.903Z,94.90
2018-02-16T21:33:27.527Z,94.90
2018-02-16T21:35:30.126Z,94.80
2018-02-16T21:37:32.809Z,94.70
2018-02-16T21:39:35.480Z,95.00
2018-02-16T21:41:38.085Z,94.90
2018-02-16T21:43:40.697Z,95.00
2018-02-16T21:45:44.058Z,95.20
2018-02-16T21:47:46.669Z,95.20
2018-02-16T21:49:49.287Z,95.20
2018-02-16T21:51:52.649Z,95.90
2018-02-16T21:53:55.274Z,95.90
2018-02-16T21:55:57.901Z,96.00
2018-02-16T21:58:00.550Z,96.00
2018-02-16T22:00:03.953Z,95.90
2018-02-16T22:02:06.573Z,95.90
2018-02-16T22:04:09.185Z,95.80
2018-02-16T22:06:12.570Z,95.90
2018-02-16T22:08:15.925Z,95.90
2018-02-16T22:10:18.541Z,95.90
2018-02-16T22:12:21.906Z,96.00
2018-02-16T22:14:24.528Z,96.00
2018-02-16T22:16:27.469Z,96.00
2018-02-16T22:18:30.066Z,96.10
2018-02-16T22:20:33.513Z,96.40
2018-02-16T22:22:36.123Z,96.40
2018-02-16T22:24:38.734Z,96.20
2018-02-16T22:26:41.333Z,96.20
2018-02-16T22:28:44.008Z,96.30
2018-02-16T22:30:46.639Z,96.50
2018-02-16T22:32:50.239Z,96.80
2018-02-16T22:34:53.688Z,97.00
2018-02-16T22:36:56.303Z,96.90
2018-02-16T22:38:59.670Z,96.80
2018-02-16T22:41:02.297Z,96.80
2018-02-16T22:43:04.937Z,96.70
2018-02-16T22:45:08.321Z,97.10
2018-02-16T22:47:11.009Z,97.10
2018-02-16T22:49:14.406Z,97.70
2018-02-16T22:51:17.852Z,98.10
2018-02-16T22:53:20.454Z,98.10
2018-02-16T22:55:23.041Z,98.10
2018-02-16T22:57:26.417Z,98.70
2018-02-16T22:59:29.026Z,98.70
2018-02-16T23:01:31.624Z,98.70
2018-02-16T23:03:34.245Z,98.70
2018-02-16T23:05:36.829Z,98.50
2018-02-16T23:07:39.443Z,98.60
2018-02-16T23:09:42.345Z,98.80
2018-02-16T23:11:44.970Z,99.10
2018-02-16T23:13:48.317Z,99.00
2018-02-16T23:15:50.908Z,98.90
2018-02-16T23:17:53.541Z,98.80
2018-02-16T23:19:56.154Z,99.00
2018-02-16T23:21:58.782Z,98.80
2018-02-16T23:24:01.373Z,98.80
2018-02-16T23:26:04.009Z,98.70
2018-02-16T23:28:07.407Z,98.30
2018-02-16T23:30:10.780Z,98.30
2018-02-16T23:32:13.379Z,98.30
2018-02-16T23:34:16.044Z,98.30
2018-02-16T23:36:19.494Z,98.20
2018-02-16T23:38:22.121Z,98.20
2018-02-16T23:40:24.723Z,98.20
2018-02-16T23:42:28.212Z,98.20
2018-02-16T23:44:31.622Z,97.80
2018-02-16T23:46:34.970Z,98.00
2018-02-16T23:48:37.635Z,98.00
2018-02-16T23:50:40.222Z,98.30
2018-02-16T23:52:42.827Z,98.30
2018-02-16T23:54:45.444Z,98.20
2018-02-16T23:56:48.049Z,98.10
2018-02-16T23:58:50.683Z,98.10
